PHL weather

Philadelphia International Airport
Philadelphia, Pennsylvania, United States

Public forecast

Using degrees Fahrenheit for public forecast. Weather courtesy of forecast.io.

METAR (pilot weather report)

Retrieved 2018/04/26 19:54 UTC (38 minutes ago):

KPHL 261954Z 28012KT 10SM FEW045 FEW260 19/05 A2981 RMK AO2 SLP095 T01890050

TAF (pilot weather forecast)

Retrieved 2018/04/26 18:48 UTC (2 hours ago):

TAF KPHL 261743Z 2618/2724 27010G18KT P6SM FEW050 FM262200 26008KT P6SM SCT250 FM270200 VRB03KT P6SM SCT100 FM271000 VRB03KT P6SM -RA OVC080 FM271200 06004KT P6SM -RA SCT015 OVC040 FM271400 05006KT 4SM -RA BR OVC008 FM272000 34006KT P6SM SCT010 OVC025